createdAt,value
2022-08-29T00:01:21.959Z,99732.50
2022-08-29T00:03:50.503Z,99727.56
2022-08-29T00:06:18.317Z,99719.16
2022-08-29T00:08:45.472Z,99723.06
2022-08-29T00:11:13.583Z,99727.91
2022-08-29T00:13:40.891Z,99731.50
2022-08-29T00:16:08.867Z,99732.59
2022-08-29T00:18:36.826Z,99736.81
2022-08-29T00:21:05.173Z,99722.16
2022-08-29T00:23:32.609Z,99732.75
2022-08-29T00:26:00.033Z,99730.16
2022-08-29T00:28:27.186Z,99734.31
2022-08-29T00:30:54.559Z,99733.81
2022-08-29T00:33:21.985Z,99734.22
2022-08-29T00:35:49.155Z,99735.66
2022-08-29T00:38:19.177Z,99735.22
2022-08-29T00:40:52.282Z,99735.47
2022-08-29T00:43:21.239Z,99735.81
2022-08-29T00:45:51.838Z,99748.00
2022-08-29T00:48:19.226Z,99735.38
2022-08-29T00:50:53.024Z,99742.41
2022-08-29T00:53:23.126Z,99748.16
2022-08-29T00:55:50.678Z,99750.84
2022-08-29T00:58:21.884Z,99750.13
2022-08-29T01:00:49.586Z,99750.28
2022-08-29T01:03:17.167Z,99749.28
2022-08-29T01:05:44.312Z,99761.47
2022-08-29T01:08:13.243Z,99750.28
2022-08-29T01:10:59.192Z,99754.88
2022-08-29T01:13:28.971Z,99752.88
2022-08-29T01:15:56.181Z,99744.63
2022-08-29T01:18:23.410Z,99751.28
2022-08-29T01:20:50.751Z,99753.03
2022-08-29T01:23:22.137Z,99752.88
2022-08-29T01:25:50.901Z,99758.88
2022-08-29T01:28:22.992Z,99761.44
2022-08-29T01:30:57.386Z,99764.34
2022-08-29T01:33:24.991Z,99762.75
2022-08-29T01:35:52.530Z,99766.19
2022-08-29T01:38:27.755Z,99762.19
2022-08-29T01:40:56.556Z,99761.12
2022-08-29T01:43:23.777Z,99761.88
2022-08-29T01:45:51.048Z,99767.19
2022-08-29T01:48:18.984Z,99764.78
2022-08-29T01:50:46.667Z,99763.47
2022-08-29T01:53:14.077Z,99760.00
2022-08-29T01:55:42.452Z,99752.44
2022-08-29T01:58:09.671Z,99765.03
2022-08-29T02:00:37.204Z,99765.44
2022-08-29T02:03:04.642Z,99768.16
2022-08-29T02:05:31.794Z,99770.47
2022-08-29T02:07:58.958Z,99762.88
2022-08-29T02:10:26.348Z,99772.34
2022-08-29T02:12:53.941Z,99767.19
2022-08-29T02:15:21.377Z,99765.37
2022-08-29T02:17:48.900Z,99757.09
2022-08-29T02:20:16.116Z,99762.13
2022-08-29T02:22:43.382Z,99754.00
2022-08-29T02:25:29.296Z,99760.53
2022-08-29T02:27:58.645Z,99749.53
2022-08-29T02:30:26.138Z,99747.28
2022-08-29T02:32:54.080Z,99741.97
2022-08-29T02:35:22.650Z,99743.06
2022-08-29T02:37:51.879Z,99738.75
2022-08-29T02:40:19.211Z,99735.44
2022-08-29T02:42:52.051Z,99735.50
2022-08-29T02:45:19.879Z,99739.31
2022-08-29T02:47:47.131Z,99741.41
2022-08-29T02:50:14.834Z,99742.69
2022-08-29T02:52:42.606Z,99746.00
2022-08-29T02:55:11.004Z,99743.81
2022-08-29T02:57:38.477Z,99747.19
2022-08-29T03:00:08.670Z,99745.06
2022-08-29T03:02:35.900Z,99753.41
2022-08-29T03:05:03.816Z,99750.63
2022-08-29T03:07:30.996Z,99749.72
2022-08-29T03:09:58.200Z,99745.06
2022-08-29T03:12:25.646Z,99750.37
2022-08-29T03:14:55.456Z,99753.41
2022-08-29T03:17:22.648Z,99753.53
2022-08-29T03:19:50.103Z,99759.78
2022-08-29T03:22:18.012Z,99759.19
2022-08-29T03:24:45.148Z,99760.44
2022-08-29T03:27:13.072Z,99765.28
2022-08-29T03:29:40.296Z,99768.22
2022-08-29T03:32:07.460Z,99767.38
2022-08-29T03:34:34.883Z,99771.69
2022-08-29T03:37:02.050Z,99779.63
2022-08-29T03:39:29.571Z,99779.41
2022-08-29T03:41:57.006Z,99781.47
2022-08-29T03:44:24.512Z,99779.75
2022-08-29T03:46:51.798Z,99784.44
2022-08-29T03:49:19.312Z,99776.97
2022-08-29T03:51:46.508Z,99784.44
2022-08-29T03:54:13.665Z,99786.44
2022-08-29T03:56:41.139Z,99789.25
2022-08-29T03:59:08.874Z,99802.69
2022-08-29T04:01:36.166Z,99799.94
2022-08-29T04:04:03.923Z,99808.59
2022-08-29T04:06:31.245Z,99805.34
2022-08-29T04:08:59.138Z,99806.56
2022-08-29T04:11:28.550Z,99810.81
2022-08-29T04:13:55.827Z,99809.31
2022-08-29T04:16:24.277Z,99806.47
2022-08-29T04:18:51.744Z,99812.69
2022-08-29T04:21:18.985Z,99808.34
2022-08-29T04:23:46.395Z,99814.75
2022-08-29T04:26:35.840Z,99812.78
2022-08-29T04:29:04.715Z,99814.62
2022-08-29T04:31:32.288Z,99811.81
2022-08-29T04:33:59.563Z,99815.59
2022-08-29T04:36:28.206Z,99822.59
2022-08-29T04:38:55.664Z,99830.88
2022-08-29T04:41:23.241Z,99827.28
2022-08-29T04:43:50.451Z,99824.63
2022-08-29T04:46:24.448Z,99823.97
2022-08-29T04:48:52.388Z,99826.69
2022-08-29T04:51:19.923Z,99830.50
2022-08-29T04:53:48.205Z,99826.91
2022-08-29T04:56:15.387Z,99830.50
2022-08-29T04:58:44.036Z,99833.72
2022-08-29T05:01:15.062Z,99838.75
2022-08-29T05:03:42.588Z,99834.72
2022-08-29T05:06:12.008Z,99837.62
2022-08-29T05:08:40.869Z,99833.00
2022-08-29T05:11:10.106Z,99828.38
2022-08-29T05:13:37.728Z,99829.66
2022-08-29T05:16:06.299Z,99824.59
2022-08-29T05:18:33.579Z,99824.22
2022-08-29T05:21:01.808Z,99833.19
2022-08-29T05:23:30.026Z,99834.37
2022-08-29T05:25:58.540Z,99835.06
2022-08-29T05:28:29.652Z,99834.81
2022-08-29T05:30:57.015Z,99839.44
2022-08-29T05:33:24.978Z,99839.31
2022-08-29T05:35:52.480Z,99839.03
2022-08-29T05:38:19.831Z,99844.25
2022-08-29T05:40:46.986Z,99840.22
2022-08-29T05:43:14.517Z,99846.31
2022-08-29T05:45:42.882Z,99849.53
2022-08-29T05:48:10.293Z,99857.44
2022-08-29T05:50:43.612Z,99853.03
2022-08-29T05:53:13.010Z,99861.03
2022-08-29T05:55:40.886Z,99860.78
2022-08-29T05:58:08.095Z,99860.69
2022-08-29T06:00:37.372Z,99859.22
2022-08-29T06:03:05.695Z,99854.09
2022-08-29T06:05:33.579Z,99854.25
2022-08-29T06:08:01.370Z,99861.88
2022-08-29T06:10:28.825Z,99864.47
2022-08-29T06:12:56.106Z,99868.41
2022-08-29T06:15:23.431Z,99869.09
2022-08-29T06:17:50.973Z,99865.91
2022-08-29T06:20:18.274Z,99872.50
2022-08-29T06:22:45.494Z,99873.47
2022-08-29T06:25:37.537Z,99883.72
2022-08-29T06:28:00.223Z,99879.84
2022-08-29T06:30:27.649Z,99882.94
2022-08-29T06:32:54.865Z,99880.28
2022-08-29T06:35:22.005Z,99886.97
2022-08-29T06:37:50.096Z,99888.97
2022-08-29T06:40:17.335Z,99885.78
2022-08-29T06:42:44.551Z,99894.66
2022-08-29T06:45:12.002Z,99900.91
2022-08-29T06:47:39.166Z,99896.38
2022-08-29T06:50:06.864Z,99907.00
2022-08-29T06:52:35.623Z,99911.00
2022-08-29T06:55:03.078Z,99910.25
2022-08-29T06:57:30.238Z,99909.03
2022-08-29T06:59:57.757Z,99904.97
2022-08-29T07:02:25.297Z,99901.06
2022-08-29T07:04:52.502Z,99898.28
2022-08-29T07:07:19.972Z,99907.19
2022-08-29T07:09:47.142Z,99901.72
2022-08-29T07:12:14.315Z,99906.88
2022-08-29T07:14:41.776Z,99903.91
2022-08-29T07:17:08.964Z,99898.09
2022-08-29T07:19:36.135Z,99904.91
2022-08-29T07:22:07.122Z,99907.72
2022-08-29T07:24:34.403Z,99909.87
2022-08-29T07:27:01.733Z,99906.28
2022-08-29T07:29:29.173Z,99908.63
2022-08-29T07:31:56.388Z,99904.25
2022-08-29T07:34:23.537Z,99914.38
2022-08-29T07:36:50.973Z,99908.41
2022-08-29T07:39:19.272Z,99904.97
2022-08-29T07:41:46.682Z,99909.66
2022-08-29T07:44:17.119Z,99908.53
2022-08-29T07:46:44.468Z,99914.34
2022-08-29T07:49:12.915Z,99916.19
2022-08-29T07:51:44.311Z,99911.91
2022-08-29T07:54:13.444Z,99916.13
2022-08-29T07:56:41.595Z,99908.87
2022-08-29T07:59:08.797Z,99918.22
2022-08-29T08:01:36.116Z,99914.38
2022-08-29T08:04:03.725Z,99921.97
2022-08-29T08:06:31.771Z,99915.13
2022-08-29T08:09:01.816Z,99915.88
2022-08-29T08:11:29.253Z,99925.81
2022-08-29T08:13:56.487Z,99928.09
2022-08-29T08:16:26.163Z,99939.94
2022-08-29T08:18:54.310Z,99928.78
2022-08-29T08:21:21.567Z,99927.91
2022-08-29T08:23:48.778Z,99929.00
2022-08-29T08:26:16.283Z,99929.31
2022-08-29T08:28:43.849Z,99926.25
2022-08-29T08:31:14.301Z,99928.84
2022-08-29T08:33:41.962Z,99923.50
2022-08-29T08:36:22.674Z,99929.19
2022-08-29T08:38:50.573Z,99929.38
2022-08-29T08:41:31.455Z,99928.62
2022-08-29T08:44:00.990Z,99924.31
2022-08-29T08:46:42.139Z,99925.19
2022-08-29T08:49:15.200Z,99926.88
2022-08-29T08:51:53.188Z,99928.81
2022-08-29T08:54:22.412Z,99926.66
2022-08-29T08:56:51.823Z,99930.31
2022-08-29T08:59:26.974Z,99936.75
2022-08-29T09:02:06.709Z,99923.00
2022-08-29T09:04:56.754Z,99932.34
2022-08-29T09:07:30.215Z,99933.31
2022-08-29T09:10:04.687Z,99924.75
2022-08-29T09:12:38.909Z,99928.81
2022-08-29T09:15:16.545Z,99921.94
2022-08-29T09:17:45.196Z,99917.25
2022-08-29T09:20:13.983Z,99923.81
2022-08-29T09:22:41.821Z,99911.47
2022-08-29T09:25:10.478Z,99918.13
2022-08-29T09:27:38.282Z,99918.13
2022-08-29T09:30:05.580Z,99915.09
2022-08-29T09:32:33.192Z,99913.81
2022-08-29T09:35:09.474Z,99919.81
2022-08-29T09:37:37.635Z,99919.94
2022-08-29T09:40:12.614Z,99915.75
2022-08-29T09:42:46.222Z,99915.94
2022-08-29T09:45:17.921Z,99918.97
2022-08-29T09:47:45.483Z,99918.75
2022-08-29T09:50:20.622Z,99914.69
2022-08-29T09:52:55.416Z,99919.69
2022-08-29T09:55:24.562Z,99925.03
2022-08-29T09:57:53.801Z,99919.94
2022-08-29T10:00:25.586Z,99928.19
2022-08-29T10:02:56.577Z,99923.91
2022-08-29T10:05:28.854Z,99929.31
2022-08-29T10:07:58.002Z,99927.22
2022-08-29T10:10:30.785Z,99923.25
2022-08-29T10:13:15.415Z,99927.97
2022-08-29T10:16:15.207Z,99920.47
2022-08-29T10:18:44.273Z,99923.69
2022-08-29T10:21:16.032Z,99934.25
2022-08-29T10:23:51.080Z,99927.50
2022-08-29T10:26:27.034Z,99930.03
2022-08-29T10:29:14.965Z,99928.47
2022-08-29T10:31:47.067Z,99936.50
2022-08-29T10:34:29.866Z,99935.25
2022-08-29T10:37:01.125Z,99930.38
2022-08-29T10:39:28.936Z,99928.94
2022-08-29T10:42:00.596Z,99926.78
2022-08-29T10:44:48.411Z,99919.91
2022-08-29T10:47:26.987Z,99919.59
2022-08-29T10:50:12.858Z,99920.66
2022-08-29T10:52:47.608Z,99917.75
2022-08-29T10:55:28.349Z,99924.09
2022-08-29T10:57:56.199Z,99913.97
2022-08-29T11:00:27.272Z,99914.47
2022-08-29T11:02:54.387Z,99908.75
2022-08-29T11:05:26.007Z,99913.16
2022-08-29T11:07:56.568Z,99908.25
2022-08-29T11:10:25.102Z,99893.87
2022-08-29T11:12:59.169Z,99897.53
2022-08-29T11:15:45.553Z,99901.59
2022-08-29T11:18:25.101Z,99898.56
2022-08-29T11:20:57.902Z,99893.13
2022-08-29T11:23:30.981Z,99893.56
2022-08-29T11:25:58.455Z,99901.91
2022-08-29T11:31:19.899Z,99895.72
2022-08-29T11:33:51.870Z,99885.56
2022-08-29T11:36:38.029Z,99894.63
2022-08-29T11:39:05.144Z,99890.75
2022-08-29T11:41:33.841Z,99894.09
2022-08-29T11:44:08.154Z,99891.12
2022-08-29T11:46:40.278Z,99885.56
2022-08-29T11:49:28.647Z,99882.34
2022-08-29T11:52:00.314Z,99888.28
2022-08-29T11:54:30.473Z,99891.44
2022-08-29T11:57:00.929Z,99880.19
2022-08-29T11:59:50.777Z,99888.06
2022-08-29T12:02:39.338Z,99885.34
2022-08-29T12:05:20.748Z,99884.66
2022-08-29T12:07:49.031Z,99885.13
2022-08-29T12:10:23.709Z,99885.13
2022-08-29T12:12:58.989Z,99878.59
2022-08-29T12:15:26.397Z,99872.47
2022-08-29T12:18:03.414Z,99875.78
2022-08-29T12:20:35.680Z,99867.66
2022-08-29T12:23:06.283Z,99876.91
2022-08-29T12:25:41.427Z,99871.09
2022-08-29T12:28:17.761Z,99875.88
2022-08-29T12:30:47.902Z,99868.44
2022-08-29T12:33:20.484Z,99867.44
2022-08-29T12:35:48.538Z,99860.53
2022-08-29T12:38:42.101Z,99856.87
2022-08-29T12:41:15.973Z,99857.94
2022-08-29T12:43:43.854Z,99854.94
2022-08-29T12:46:16.111Z,99850.81
2022-08-29T12:48:46.285Z,99844.38
2022-08-29T12:51:38.572Z,99844.09
2022-08-29T12:54:06.164Z,99841.63
2022-08-29T12:56:33.727Z,99842.16
2022-08-29T12:59:01.676Z,99834.66
2022-08-29T13:01:30.948Z,99834.16
2022-08-29T13:04:06.436Z,99830.06
2022-08-29T13:06:34.256Z,99828.94
2022-08-29T13:09:02.043Z,99824.53
2022-08-29T13:11:30.556Z,99825.34
2022-08-29T13:14:07.305Z,99816.84
2022-08-29T13:16:35.033Z,99817.91
2022-08-29T13:19:11.460Z,99812.97
2022-08-29T13:21:39.287Z,99822.81
2022-08-29T13:24:11.496Z,99817.75
2022-08-29T13:27:03.085Z,99820.97
2022-08-29T13:29:40.355Z,99817.91
2022-08-29T13:32:11.072Z,99811.94
2022-08-29T13:34:38.210Z,99802.53
2022-08-29T13:37:10.529Z,99804.28
2022-08-29T13:39:47.651Z,99810.91
2022-08-29T13:42:16.254Z,99799.91
2022-08-29T13:44:49.479Z,99808.44
2022-08-29T13:47:16.857Z,99812.66
2022-08-29T13:49:44.023Z,99804.13
2022-08-29T13:52:11.708Z,99811.50
2022-08-29T13:54:41.524Z,99803.25
2022-08-29T13:57:12.553Z,99799.97
2022-08-29T13:59:40.437Z,99802.53
2022-08-29T14:02:09.374Z,99795.34
2022-08-29T14:04:39.878Z,99803.66
2022-08-29T14:07:12.261Z,99805.53
2022-08-29T14:09:41.145Z,99796.31
2022-08-29T14:12:08.675Z,99799.28
2022-08-29T14:14:35.859Z,99793.09
2022-08-29T14:17:03.371Z,99794.16
2022-08-29T14:19:30.860Z,99793.19
2022-08-29T14:22:00.499Z,99787.75
2022-08-29T14:24:29.158Z,99793.28
2022-08-29T14:27:01.861Z,99790.13
2022-08-29T14:29:31.063Z,99791.47
2022-08-29T14:31:58.728Z,99790.53
2022-08-29T14:34:30.580Z,99790.56
2022-08-29T14:36:58.435Z,99795.03
2022-08-29T14:39:26.539Z,99791.38
2022-08-29T14:41:54.351Z,99787.31
2022-08-29T14:44:24.873Z,99788.31
2022-08-29T14:46:52.058Z,99787.72
2022-08-29T14:49:19.269Z,99790.19
2022-08-29T14:51:46.918Z,99796.50
2022-08-29T14:54:14.140Z,99786.03
2022-08-29T14:56:50.058Z,99787.13
2022-08-29T14:59:18.491Z,99787.31
2022-08-29T15:01:51.293Z,99790.53
2022-08-29T15:04:36.549Z,99786.88
2022-08-29T15:07:06.879Z,99789.03
2022-08-29T15:09:34.666Z,99785.63
2022-08-29T15:12:01.964Z,99787.75
2022-08-29T15:14:29.113Z,99790.22
2022-08-29T15:16:56.566Z,99789.69
2022-08-29T15:22:11.812Z,99785.41
2022-08-29T15:24:39.453Z,99787.75
2022-08-29T15:27:06.929Z,99785.19
2022-08-29T15:29:35.019Z,99784.78
2022-08-29T15:32:02.213Z,99790.22
2022-08-29T15:34:29.405Z,99795.63
2022-08-29T15:36:57.207Z,99778.72
2022-08-29T15:39:28.152Z,99782.63
2022-08-29T15:41:55.973Z,99776.31
2022-08-29T15:44:23.800Z,99775.56
2022-08-29T15:46:52.571Z,99783.25
2022-08-29T15:49:20.782Z,99790.31
2022-08-29T15:51:49.426Z,99794.63
2022-08-29T15:54:16.995Z,99799.75
2022-08-29T15:56:44.181Z,99796.31
2022-08-29T15:59:12.351Z,99786.03
2022-08-29T16:01:43.689Z,99779.53
2022-08-29T16:04:12.110Z,99778.56
2022-08-29T16:06:39.290Z,99783.88
2022-08-29T16:09:15.407Z,99777.00
2022-08-29T16:11:44.639Z,99784.50
2022-08-29T16:14:57.551Z,99783.66
2022-08-29T16:16:59.667Z,99791.19
2022-08-29T16:19:29.960Z,99779.00
2022-08-29T16:22:00.107Z,99782.09
2022-08-29T16:24:28.246Z,99777.69
2022-08-29T16:26:55.508Z,99774.84
2022-08-29T16:29:26.242Z,99769.69
2022-08-29T16:31:58.069Z,99787.94
2022-08-29T16:34:28.614Z,99777.97
2022-08-29T16:36:56.861Z,99773.59
2022-08-29T16:39:24.009Z,99781.03
2022-08-29T16:41:51.646Z,99792.97
2022-08-29T16:44:19.627Z,99793.88
2022-08-29T16:46:46.815Z,99794.31
2022-08-29T16:49:14.144Z,99794.16
2022-08-29T16:51:41.782Z,99800.50
2022-08-29T16:54:08.963Z,99809.97
2022-08-29T16:56:36.209Z,99814.09
2022-08-29T16:59:04.490Z,99821.25
2022-08-29T17:01:37.809Z,99816.28
2022-08-29T17:04:07.273Z,99822.94
2022-08-29T17:06:34.474Z,99827.56
2022-08-29T17:09:05.283Z,99833.37
2022-08-29T17:11:35.814Z,99826.94
2022-08-29T17:14:03.045Z,99836.53
2022-08-29T17:16:30.388Z,99834.81
2022-08-29T17:18:57.852Z,99840.94
2022-08-29T17:21:25.837Z,99839.78
2022-08-29T17:23:53.220Z,99844.56
2022-08-29T17:26:20.941Z,99853.94
2022-08-29T17:28:48.292Z,99845.75
2022-08-29T17:31:15.991Z,99852.19
2022-08-29T17:33:43.468Z,99850.31
2022-08-29T17:36:11.039Z,99849.37
2022-08-29T17:38:42.332Z,99849.97
2022-08-29T17:41:15.054Z,99853.94
2022-08-29T17:43:44.713Z,99859.47
2022-08-29T17:46:12.431Z,99862.16
2022-08-29T17:48:41.073Z,99860.91
2022-08-29T17:51:08.266Z,99868.84
2022-08-29T17:53:35.706Z,99868.94
2022-08-29T17:56:12.582Z,99876.25
2022-08-29T17:58:40.429Z,99881.13
2022-08-29T18:01:12.366Z,99884.09
2022-08-29T18:03:43.098Z,99896.50
2022-08-29T18:06:10.455Z,99896.09
2022-08-29T18:08:39.024Z,99897.25
2022-08-29T18:11:06.570Z,99901.78
2022-08-29T18:13:33.953Z,99902.53
2022-08-29T18:16:02.016Z,99904.81
2022-08-29T18:18:29.838Z,99907.69
2022-08-29T18:20:57.005Z,99906.16
2022-08-29T18:23:24.207Z,99916.84
2022-08-29T18:25:51.695Z,99910.13
2022-08-29T18:28:19.925Z,99902.06
2022-08-29T18:30:48.267Z,99915.34
2022-08-29T18:33:16.134Z,99914.06
2022-08-29T18:35:43.783Z,99919.09
2022-08-29T18:38:11.858Z,99923.53
2022-08-29T18:40:47.330Z,99922.09
2022-08-29T18:43:18.672Z,99927.13
2022-08-29T18:45:50.687Z,99933.13
2022-08-29T18:48:18.441Z,99926.06
2022-08-29T18:50:47.384Z,99931.91
2022-08-29T18:53:16.214Z,99928.84
2022-08-29T18:55:49.212Z,99933.53
2022-08-29T18:58:19.427Z,99929.72
2022-08-29T19:00:47.967Z,99933.84
2022-08-29T19:03:15.316Z,99931.78
2022-08-29T19:05:49.770Z,99930.94
2022-08-29T19:08:17.608Z,99940.56
2022-08-29T19:10:46.843Z,99936.25
2022-08-29T19:13:14.682Z,99939.53
2022-08-29T19:15:43.109Z,99937.16
2022-08-29T19:18:11.227Z,99948.50
2022-08-29T19:21:00.195Z,99944.94
2022-08-29T19:23:32.745Z,99944.59
2022-08-29T19:26:00.545Z,99944.66
2022-08-29T19:28:28.086Z,99936.75
2022-08-29T19:30:57.516Z,99940.63
2022-08-29T19:33:26.291Z,99951.78
2022-08-29T19:35:54.068Z,99966.53
2022-08-29T19:38:22.594Z,99957.09
2022-08-29T19:40:56.463Z,99956.31
2022-08-29T19:43:25.195Z,99956.81
2022-08-29T19:45:52.590Z,99965.59
2022-08-29T19:48:20.139Z,99960.75
2022-08-29T19:50:48.764Z,99960.91
2022-08-29T19:53:24.645Z,99958.56
2022-08-29T19:55:55.462Z,99959.34
2022-08-29T19:58:23.639Z,99967.69
2022-08-29T20:01:03.108Z,99965.94
2022-08-29T20:03:30.779Z,99964.22
2022-08-29T20:05:59.685Z,99965.19
2022-08-29T20:08:27.693Z,99967.38
2022-08-29T20:10:58.707Z,99964.56
2022-08-29T20:13:28.287Z,99962.84
2022-08-29T20:16:08.244Z,99959.53
2022-08-29T20:18:35.587Z,99963.78
2022-08-29T20:21:03.182Z,99969.94
2022-08-29T20:23:31.760Z,99973.56
2022-08-29T20:26:01.603Z,99971.34
2022-08-29T20:28:30.464Z,99976.59
2022-08-29T20:30:57.674Z,99977.03
2022-08-29T20:33:24.917Z,99974.09
2022-08-29T20:36:11.205Z,99967.25
2022-08-29T20:38:38.340Z,99973.59
2022-08-29T20:41:05.765Z,99975.06
2022-08-29T20:43:32.906Z,99987.25
2022-08-29T20:46:00.253Z,99990.16
2022-08-29T20:48:31.177Z,99989.47
2022-08-29T20:50:59.902Z,99981.69
2022-08-29T20:53:31.769Z,99983.13
2022-08-29T20:56:00.159Z,99978.56
2022-08-29T20:58:29.034Z,99978.41
2022-08-29T21:00:57.292Z,99975.25
2022-08-29T21:03:43.456Z,99974.16
2022-08-29T21:06:11.363Z,99974.97
2022-08-29T21:08:39.831Z,99983.59
2022-08-29T21:11:07.784Z,99973.69
2022-08-29T21:13:35.289Z,99971.19
2022-08-29T21:16:04.619Z,99980.16
2022-08-29T21:18:31.839Z,99973.13
2022-08-29T21:20:59.321Z,99972.41
2022-08-29T21:23:26.565Z,99964.25
2022-08-29T21:25:54.144Z,99968.41
2022-08-29T21:28:21.690Z,99969.13
2022-08-29T21:30:49.633Z,99973.00
2022-08-29T21:33:16.875Z,99971.53
2022-08-29T21:35:44.429Z,99979.00
2022-08-29T21:38:11.670Z,99982.06
2022-08-29T21:40:50.522Z,99973.53
2022-08-29T21:43:20.878Z,99978.56
2022-08-29T21:45:48.097Z,99968.63
2022-08-29T21:48:16.251Z,99966.00
2022-08-29T21:50:44.831Z,99970.09
2022-08-29T21:53:14.163Z,99975.09
2022-08-29T21:55:41.608Z,99979.28
2022-08-29T21:58:09.350Z,99980.94
2022-08-29T22:00:36.928Z,99984.72
2022-08-29T22:03:05.918Z,99984.97
2022-08-29T22:05:33.547Z,99982.16
2022-08-29T22:08:04.252Z,99981.44
2022-08-29T22:10:33.981Z,99980.34
2022-08-29T22:13:01.586Z,99989.16
2022-08-29T22:15:47.609Z,99984.53
2022-08-29T22:18:15.421Z,99986.88
2022-08-29T22:20:43.707Z,99986.16
2022-08-29T22:23:11.191Z,99986.78
2022-08-29T22:25:38.614Z,99989.59
2022-08-29T22:28:05.830Z,99986.28
2022-08-29T22:30:33.072Z,99986.63
2022-08-29T22:33:00.640Z,99988.28
2022-08-29T22:35:28.835Z,99994.22
2022-08-29T22:37:56.002Z,99993.72
2022-08-29T22:40:23.513Z,99999.03
2022-08-29T22:42:50.884Z,99999.56
2022-08-29T22:45:18.155Z,99995.44
2022-08-29T22:47:46.371Z,100000.81
2022-08-29T22:50:15.643Z,99999.03
2022-08-29T22:52:43.833Z,100004.19
2022-08-29T22:55:13.518Z,100000.88
2022-08-29T22:57:42.030Z,100010.53
2022-08-29T23:00:09.537Z,100009.53
2022-08-29T23:02:37.110Z,100012.41
2022-08-29T23:05:08.927Z,100014.00
2022-08-29T23:07:37.541Z,100026.44
2022-08-29T23:10:05.838Z,100017.72
2022-08-29T23:12:35.042Z,100021.13
2022-08-29T23:15:04.215Z,100025.38
2022-08-29T23:17:31.407Z,100020.81
2022-08-29T23:19:58.603Z,100018.75
2022-08-29T23:22:26.482Z,100020.19
2022-08-29T23:24:58.779Z,100028.38
2022-08-29T23:27:30.050Z,100025.75
2022-08-29T23:29:57.741Z,100022.22
2022-08-29T23:32:24.897Z,100020.06
2022-08-29T23:34:52.293Z,100030.28
2022-08-29T23:37:19.503Z,100031.88
2022-08-29T23:39:46.813Z,100033.56
2022-08-29T23:42:14.507Z,100031.28
2022-08-29T23:44:41.653Z,100029.72
2022-08-29T23:47:08.920Z,100030.53
2022-08-29T23:49:36.421Z,100035.09
2022-08-29T23:52:04.000Z,100040.81
2022-08-29T23:54:31.856Z,100029.12
2022-08-29T23:56:59.394Z,100032.19
2022-08-29T23:59:45.419Z,100032.97
